Flight Track Log - Related Links

Times and Time Zones

All times are in EDT time to prevent confusion due to time zone crossing. See the UAL395 flight status page for this flight to view local times or setup timezone preferences in your user account.

Time Position Orientation Groundspeed Altitude Reporting Facility
EDT Latitude Longitude Course Direction KTS MPH feet Rate Location/Type
Wed 02:04:14 PM 40.6500 -74.2000 294° West 172 198 1,700  Level New York TRACON
Wed 02:05:14 PM 40.7000 -74.2500 323° Northwest 225 259 3,900 2,900 Climbing New York TRACON
Wed 02:06:14 PM 40.7500 -74.3167 315° West 265 305 7,500 3,050 Climbing New York TRACON
Wed 02:07:14 PM 40.8167 -74.3833 323° Northwest 285 328 10,000 1,300 Climbing New York TRACON
Wed 02:08:14 PM 40.8833 -74.4500 323° Northwest 341 392 10,100 903 Climbing New York TRACON
Wed 02:08:47 PM 40.9361 -74.4983 325° Northwest 361 415 11,400 2,516 Climbing New York Center
Wed 02:09:00 PM 41.1446 -74.7338 294° West  Level FlightAware Approximate
Wed 02:09:47 PM 41.0169 -74.5772 324° Northwest 387 445 14,000  Level New York Center
Wed 02:10:47 PM 41.1017 -74.6589 324° Northwest 408 470 16,500 2,250 Climbing New York Center
Wed 02:11:47 PM 41.1689 -74.7675 309° West 392 451 18,500 1,850 Climbing New York Center
Wed 02:12:47 PM 41.2192 -74.8836 300° West 382 440 20,200 1,900 Climbing New York Center
Wed 02:13:47 PM 41.2806 -75.0281 300° West 403 464 22,300 1,950 Climbing New York Center
Wed 02:14:47 PM 41.3383 -75.1589 300° West 409 471 24,100 1,650 Climbing New York Center
Wed 02:15:47 PM 41.3978 -75.2983 300° West 419 482 25,600 1,450 Climbing New York Center
Wed 02:16:47 PM 41.4567 -75.4408 299° West 430 495 27,000 1,450 Climbing New York Center
Wed 02:17:47 PM 41.5069 -75.5883 295° West 435 501 28,500 1,350 Climbing New York Center
Wed 02:18:47 PM 41.5525 -75.7467 291° West 447 514 29,700 1,300 Climbing New York Center
Wed 02:19:47 PM 41.5981 -75.9028 291° West 454 522 31,100 1,500 Climbing New York Center
Wed 02:20:47 PM 41.6431 -76.0589 291° West 459 528 32,700 1,500 Climbing New York Center
Wed 02:21:47 PM 41.6825 -76.2008 290° West 454 522 34,100 1,300 Climbing New York Center
Wed 02:22:47 PM 41.7236 -76.3514 290° West 454 522 35,300 659 Climbing New York Center
Wed 02:24:40 PM 41.8006 -76.6386 290° West 459 528 36,000 243 Climbing Cleveland Center
Wed 02:25:40 PM 41.8431 -76.7894 291° West 449 517 36,000  Level Cleveland Center
Wed 02:26:40 PM 41.8856 -76.9431 290° West 444 511 36,000  Level Cleveland Center
Wed 02:27:40 PM 41.9258 -77.0944 290° West 444 511 36,000  Level Cleveland Center
Wed 02:28:40 PM 41.9678 -77.2483 290° West 444 511 36,000  Level Cleveland Center
Wed 02:29:40 PM 42.0122 -77.4111 290° West 438 504 36,000  Level Cleveland Center
Wed 02:30:40 PM 42.0517 -77.5631 289° West 438 504 36,000  Level Cleveland Center
Wed 02:31:40 PM 42.0931 -77.7178 290° West 438 504 36,000  Level Cleveland Center
Wed 02:32:40 PM 42.1344 -77.8700 290° West 438 504 36,000  Level Cleveland Center
Wed 02:33:40 PM 42.1733 -78.0250 289° West 438 504 36,000  Level Cleveland Center
Wed 02:34:40 PM 42.2142 -78.1806 290° West 438 504 36,000  Level Cleveland Center
Wed 02:35:40 PM 42.2550 -78.3361 290° West 438 504 36,000  Level Cleveland Center
Wed 02:36:40 PM 42.2953 -78.4919 289° West 438 504 36,000  Level Cleveland Center
Wed 02:37:40 PM 42.3356 -78.6506 289° West 438 504 36,000  Level Cleveland Center
Wed 02:38:40 PM 42.3736 -78.8014 289° West 438 504 36,000  Level Cleveland Center
Wed 02:39:41 PM 42.4133 -78.9606 289° West 438 504 36,000  Level Cleveland Center
Wed 02:40:40 PM 42.4508 -79.1172 288° West 438 504 36,000  Level Cleveland Center
Wed 02:41:40 PM 42.4861 -79.2769 287° West 438 504 36,000  Level Cleveland Center
Wed 02:42:40 PM 42.5003 -79.4369 277° West 433 498 36,000  Level Cleveland Center
Wed 02:43:40 PM 42.5061 -79.5975 273° West 428 493 36,000  Level Cleveland Center
Wed 02:44:40 PM 42.5178 -79.7550 276° West 428 493 36,000  Level Cleveland Center
Wed 02:45:40 PM 42.5247 -79.8872 274° West 428 493 36,000  Level Cleveland Center
Wed 02:46:40 PM 42.5278 -80.0619 271° West 423 487 36,000  Level Cleveland Center
Wed 02:47:40 PM 42.5347 -80.2253 273° West 422 486 36,000  Level Cleveland Center
Wed 02:48:40 PM 42.5433 -80.3917 274° West 432 497 36,000  Level Cleveland Center
Wed 02:49:40 PM 42.5497 -80.5550 273° West 442 509 36,000  Level Cleveland Center
Wed 02:50:40 PM 42.5561 -80.7214 273° West 448 516 36,000  Level Cleveland Center
Wed 02:51:40 PM 42.5619 -80.9017 273° West 441 507 36,000  Level Cleveland Center
Wed 02:52:40 PM 42.5675 -81.0653 273° West 441 507 36,000  Level Cleveland Center
Wed 02:53:40 PM 42.5750 -81.2317 274° West 441 507 36,000  Level Cleveland Center
Wed 02:54:40 PM 42.5803 -81.3953 273° West 441 507 36,000  Level Cleveland Center
Wed 02:55:40 PM 42.6019 -81.5647 280° West 447 514 36,000  Level Cleveland Center
Wed 02:56:40 PM 42.6317 -81.7317 284° West 447 514 36,000  Level Cleveland Center
Wed 02:57:40 PM 42.6572 -81.8761 284° West 450 518 36,000  Level Cleveland Center
Wed 02:58:40 PM 42.6864 -82.0464 283° West 456 525 36,000  Level Cleveland Center
Wed 02:59:40 PM 42.7156 -82.2136 283° West 456 525 36,000  Level Cleveland Center
Wed 03:00:40 PM 42.7442 -82.3783 283° West 451 519 36,000  Level Cleveland Center
Wed 03:01:40 PM 42.7728 -82.5489 283° West 451 519 36,000  Level Cleveland Center
Wed 03:02:40 PM 42.8008 -82.7197 283° West 451 519 36,000  Level Cleveland Center
Wed 03:03:40 PM 42.8289 -82.8933 282° West 456 525 36,000 -150 Level Cleveland Center
Wed 03:04:40 PM 42.8567 -83.0642 283° West 456 525 35,700 -650 Descending Cleveland Center
Wed 03:05:40 PM 42.8839 -83.2353 282° West 456 525 34,700 -1,050 Descending Cleveland Center
Wed 03:06:40 PM 42.9111 -83.4067 282° West 462 532 33,600 -1,100 Descending Cleveland Center
Wed 03:07:40 PM 42.9403 -83.5811 283° West 467 537 32,500 -800 Descending Cleveland Center
Wed 03:08:40 PM 42.9583 -83.7550 278° West 467 537 32,000 -250 Descending Cleveland Center
Wed 03:09:40 PM 42.9464 -83.9558 265° West 472 543 32,000  Level Cleveland Center
Wed 03:10:40 PM 42.9286 -84.1336 262° West 472 543 32,000  Level Cleveland Center
Wed 03:12:52 PM 42.8928 -84.5006 263° West 474 545 32,000  Level Chicago Center
Wed 03:13:54 PM 42.8744 -84.6783 262° West 475 547 32,000  Level Chicago Center
Wed 03:14:56 PM 42.8564 -84.8553 262° West 472 543 32,000  Level Chicago Center
Wed 03:15:58 PM 42.8333 -85.0681 262° West 473 544 32,000 -48 Level Chicago Center
Wed 03:17:00 PM 42.8142 -85.2458 262° West 475 547 31,900 -581 Descending Chicago Center
Wed 03:18:02 PM 42.7939 -85.4203 261° West 469 540 30,800 -1,694 Descending Chicago Center
Wed 03:19:04 PM 42.7700 -85.5933 259° West 466 536 28,400 -2,710 Descending Chicago Center
Wed 03:20:06 PM 42.7372 -85.7628 255° West 461 531 25,200 -2,855 Descending Chicago Center
Wed 03:21:08 PM 42.7083 -85.9283 257° West 452 520 22,500 -2,400 Descending Chicago Center
Wed 03:22:11 PM 42.6792 -86.0867 256° West 434 499 20,200 -1,200 Descending Chicago Center
Wed 03:23:13 PM 42.6514 -86.2394 256° West 419 482 20,000 -581 Descending Chicago Center
Wed 03:24:15 PM 42.6167 -86.4197 255° West 409 471 19,000 -1,355 Descending Chicago Center
Wed 03:25:17 PM 42.5892 -86.5683 256° West 406 467 17,200 -1,839 Descending Chicago Center
Wed 03:26:19 PM 42.5639 -86.7128 257° West 395 455 15,200 -1,935 Descending Chicago Center
Wed 03:27:21 PM 42.5281 -86.8475 250° West 383 441 13,200 -1,935 Descending Chicago Center
Wed 03:28:23 PM 42.4931 -86.9778 250° West 370 426 11,200 -1,548 Descending Chicago Center
Wed 03:29:25 PM 42.4572 -87.1011 249° West 356 410 10,000 -677 Descending Chicago Center
Wed 03:30:27 PM 42.4175 -87.2467 250° West 337 388 9,800 -484 Descending Chicago Center
Wed 03:31:29 PM 42.3900 -87.3453 249° West 286 329 9,000 -384 Descending Chicago Center
Wed 03:32:32 PM 42.3144 -87.3897 204° Southwest 300 345 9,000 -144 Level Chicago Center
Wed 03:33:34 PM 42.2450 -87.4408 209° Southwest 289 333 8,700 -871 Descending Chicago Center
Wed 03:34:36 PM 42.1803 -87.4997 214° Southwest 285 328 7,200 -1,258 Descending Chicago Center
Wed 03:35:38 PM 42.1208 -87.5569 216° Southwest 268 308 6,100 -1,113 Descending Chicago Center
Wed 03:36:40 PM 42.0528 -87.5972 204° Southwest 227 261 4,900 -1,016 Descending Chicago Center
Wed 03:37:42 PM 41.9956 -87.6175 195° South 219 252 4,000 -726 Descending Chicago Center
Wed 03:38:44 PM 41.9836 -87.6903 258° West 205 236 3,400 -726 Descending Chicago Center
Wed 03:39:46 PM 41.9844 -87.7603 271° West 195 224 2,500 -857 Descending Chicago Center
Wed 03:40:36 PM 41.9833 -87.8167 269° West 139 160 1,800 -764 Descending Chicago TRACON
Wed 03:41:36 PM 41.9833 -87.8667 270° West 123 142 1,100 -700 Descending Chicago TRACON

Login

Don't have an account? Register now (free) for customized features, flight alerts, and more!